createdAt,value
2022-11-28T22:01:50.433Z,50.72
2022-11-28T22:03:27.113Z,50.99
2022-11-28T22:04:27.687Z,50.29
2022-11-28T22:05:27.515Z,52.80
2022-11-28T22:06:27.552Z,50.70
2022-11-28T22:07:27.535Z,50.29
2022-11-28T22:08:27.393Z,50.29
2022-11-28T22:10:37.631Z,50.29
2022-11-28T22:11:38.706Z,50.29
2022-11-28T22:12:38.500Z,50.29
2022-11-28T22:13:38.323Z,50.39
2022-11-28T22:14:38.210Z,50.29
2022-11-28T22:15:38.357Z,50.29
2022-11-28T22:16:38.055Z,50.49
2022-11-28T22:17:38.333Z,50.39
2022-11-28T22:18:38.106Z,50.42
2022-11-28T22:19:38.136Z,50.42
2022-11-28T22:20:43.664Z,50.32
2022-11-28T22:21:56.412Z,50.42
2022-11-28T22:22:38.155Z,50.42
2022-11-28T22:23:38.253Z,50.52
2022-11-28T22:24:38.244Z,50.52
2022-11-28T22:25:38.196Z,50.52
2022-11-28T22:26:38.597Z,50.52
2022-11-28T22:27:38.267Z,50.52
2022-11-28T22:28:37.502Z,50.62
2022-11-28T22:29:37.570Z,50.62
2022-11-28T22:30:37.600Z,50.62
2022-11-28T22:31:37.526Z,50.62
2022-11-28T22:32:37.292Z,50.62
2022-11-28T22:33:37.203Z,50.62
2022-11-28T22:34:40.033Z,50.72
2022-11-28T22:35:37.777Z,50.72
2022-11-28T22:36:37.129Z,50.72
2022-11-28T22:37:37.150Z,50.72
2022-11-28T22:38:37.164Z,50.74
2022-11-28T22:39:36.992Z,50.64
2022-11-28T22:40:36.826Z,50.72
2022-11-28T22:41:36.751Z,50.74
2022-11-28T22:42:36.629Z,50.72
2022-11-28T22:43:36.613Z,50.74
2022-11-28T22:44:36.624Z,50.74
2022-11-28T22:45:36.517Z,50.74
2022-11-28T22:46:36.437Z,50.84
2022-11-28T22:47:36.501Z,50.84
2022-11-28T22:48:36.331Z,50.74
2022-11-28T22:49:36.281Z,50.54
2022-11-28T22:50:40.060Z,50.84
2022-11-28T22:51:36.343Z,50.84
2022-11-28T22:52:36.094Z,50.84
2022-11-28T22:53:36.076Z,50.84
2022-11-28T22:54:36.036Z,50.92
2022-11-28T22:56:11.146Z,51.62
2022-11-28T22:57:12.225Z,51.52
2022-11-28T22:58:12.125Z,51.52
2022-11-28T22:59:11.940Z,51.32
2022-11-28T23:00:12.177Z,51.22
2022-11-28T23:01:11.895Z,51.02
2022-11-28T23:02:12.223Z,51.02
2022-11-28T23:03:12.043Z,51.02
2022-11-28T23:04:12.192Z,51.02
2022-11-28T23:05:11.953Z,51.02
2022-11-28T23:06:11.980Z,51.02
2022-11-28T23:07:11.884Z,51.02
2022-11-28T23:08:12.003Z,51.12
2022-11-28T23:09:11.809Z,51.12
2022-11-28T23:10:12.090Z,51.22
2022-11-28T23:11:11.783Z,51.12
2022-11-28T23:12:11.972Z,51.22
2022-11-28T23:13:11.803Z,51.12
2022-11-28T23:14:11.820Z,51.22
2022-11-28T23:15:11.793Z,51.22
2022-11-28T23:16:11.867Z,51.32
2022-11-28T23:17:11.699Z,51.32
2022-11-28T23:18:11.888Z,51.22
2022-11-28T23:19:11.708Z,51.22
2022-11-28T23:20:11.942Z,51.32
2022-11-28T23:21:11.653Z,51.32
2022-11-28T23:22:11.813Z,51.32
2022-11-28T23:23:11.621Z,51.32
2022-11-28T23:24:11.675Z,51.32
2022-11-28T23:25:11.601Z,51.32
2022-11-28T23:26:11.715Z,51.32
2022-11-28T23:27:11.665Z,51.32
2022-11-28T23:28:11.614Z,51.32
2022-11-28T23:29:11.602Z,51.42
2022-11-28T23:30:11.650Z,51.44
2022-11-28T23:31:11.579Z,51.42
2022-11-28T23:32:11.767Z,51.42
2022-11-28T23:33:11.627Z,51.44
2022-11-28T23:34:11.551Z,51.42
2022-11-28T23:35:11.727Z,51.42
2022-11-28T23:36:11.594Z,51.42
2022-11-28T23:37:11.562Z,51.44
2022-11-28T23:38:11.597Z,51.54
2022-11-28T23:39:11.455Z,51.52
2022-11-28T23:40:11.921Z,51.54
2022-11-28T23:41:12.029Z,51.54
2022-11-28T23:42:11.602Z,51.54
2022-11-28T23:43:11.361Z,51.54
2022-11-28T23:44:11.531Z,51.54
2022-11-28T23:45:11.385Z,51.54
2022-11-28T23:46:12.040Z,51.64
2022-11-28T23:47:11.330Z,51.64
2022-11-28T23:48:11.445Z,51.64
2022-11-28T23:49:11.432Z,51.64
2022-11-28T23:50:12.971Z,51.64
2022-11-28T23:51:11.249Z,51.64
2022-11-28T23:52:11.454Z,51.64
2022-11-28T23:53:11.287Z,51.62
2022-11-28T23:54:11.334Z,51.64
2022-11-28T23:55:11.216Z,51.64
2022-11-28T23:56:11.296Z,51.74
2022-11-28T23:57:11.188Z,51.74
2022-11-28T23:58:11.359Z,51.74
2022-11-28T23:59:11.293Z,51.74
